Time;durP1;ratioP1;P1;durP2;ratioP2;P2;SDS_P1;SDS_P2;PMS_P1;PMS_P2;Temp;Humidity;BMP_temperature;BMP_pressure;BME280_temperature;BME280_humidity;BME280_pressure;Samples;Min_cycle;Max_cycle;Signal;HPM_P1;HPM_P2
2022/01/19 00:01:19;;;;;;;;;;;0.00;92.60;;;;;;4828521;29;19925;-76
2022/01/19 00:03:47;;;;;;;;;;;0.00;92.60;;;;;;4825840;29;19949;-76
2022/01/19 00:06:15;;;;;;;;;;;0.00;92.60;;;;;;4827319;29;19925;-76
2022/01/19 00:08:43;;;;;;;;;;;0.00;92.60;;;;;;4826273;29;19941;-76
2022/01/19 00:11:10;;;;;;;;;;;0.00;92.50;;;;;;4827662;29;20835;-76
2022/01/19 00:13:38;;;;;;;;;;;0.00;92.50;;;;;;4831001;29;19935;-76
2022/01/19 00:16:06;;;;;;;;;;;0.00;92.60;;;;;;4816245;29;19928;-76
2022/01/19 00:18:34;;;;;;;;;;;-0.10;92.50;;;;;;4826403;29;20384;-76
2022/01/19 00:21:02;;;;;;;;;;;-0.10;92.50;;;;;;4826973;29;19928;-75
2022/01/19 00:23:29;;;;;;;;;;;-0.10;92.30;;;;;;4827496;29;19932;-76
2022/01/19 00:25:57;;;;;;;;;;;-0.20;92.20;;;;;;4830969;29;20058;-76
2022/01/19 00:28:25;;;;;;;;;;;-0.30;92.20;;;;;;4836635;29;20376;-76
2022/01/19 00:30:53;;;;;;;;;;;-0.30;92.30;;;;;;4832166;29;19933;-76
2022/01/19 00:33:20;;;;;;;;;;;-0.30;92.50;;;;;;4831899;29;19943;-76
2022/01/19 00:35:48;;;;;;;;;;;-0.30;92.50;;;;;;4827985;29;20437;-76
2022/01/19 00:38:16;;;;;;;;;;;-0.40;92.50;;;;;;4818827;29;19924;-75
2022/01/19 00:40:46;;;;;;;;;;;-0.50;92.40;;;;;;4819816;29;19931;-76
2022/01/19 00:43:14;;;;;;;;;;;-0.50;92.50;;;;;;4810417;29;19925;-75
2022/01/19 00:45:42;;;;;;;;;;;-0.50;92.50;;;;;;4819605;29;19973;-76
2022/01/19 00:48:25;;;;;;;;;;;-0.60;92.60;;;;;;4826488;29;19925;-76
2022/01/19 00:50:52;;;;;;;;;;;-0.60;92.50;;;;;;4826563;29;19939;-76
2022/01/19 00:53:20;;;;;;;;;;;-0.60;92.50;;;;;;4839993;29;19924;-76
2022/01/19 00:55:47;;;;;;;;;;;-0.60;92.60;;;;;;4839228;29;19924;-76
2022/01/19 00:58:14;;;;;;;;;;;-0.60;92.80;;;;;;4809110;29;20483;-76
2022/01/19 01:00:42;;;;;;;;;;;-0.60;93.10;;;;;;4834516;29;19931;-76
2022/01/19 01:03:10;;;;;;;;;;;-0.50;93.20;;;;;;4825196;29;20408;-75
2022/01/19 01:05:38;;;;;;;;;;;-0.40;93.30;;;;;;4836751;29;19925;-76
2022/01/19 01:08:05;;;;;;;;;;;-0.40;93.20;;;;;;4814007;29;19925;-76
2022/01/19 01:10:41;;;;;;;;;;;-0.40;93.20;;;;;;4835402;29;20297;-76
2022/01/19 01:18:27;;;;;;;;;;;-0.10;93.40;;;;;;4813881;29;19932;-75
2022/01/19 01:20:59;;;;;;;;;;;0.00;93.50;;;;;;4824030;29;19925;-75
2022/01/19 01:23:28;;;;;;;;;;;0.20;93.90;;;;;;4814929;29;19939;-75
2022/01/19 01:25:56;;;;;;;;;;;0.70;94.10;;;;;;4825714;29;20304;-76
2022/01/19 01:28:24;;;;;;;;;;;1.00;94.10;;;;;;4837505;29;19928;-76
2022/01/19 01:30:52;;;;;;;;;;;1.30;93.90;;;;;;4838772;29;19979;-76
2022/01/19 01:33:20;;;;;;;;;;;1.50;93.90;;;;;;4824911;29;19931;-76
2022/01/19 01:35:47;;;;;;;;;;;1.60;93.80;;;;;;4822357;29;19931;-76
2022/01/19 01:38:16;;;;;;;;;;;1.70;93.60;;;;;;4833245;29;19924;-76
2022/01/19 01:41:06;;;;;;;;;;;1.80;93.50;;;;;;4811699;29;19931;-75
2022/01/19 01:43:33;;;;;;;;;;;1.70;93.30;;;;;;4831855;29;20416;-76
2022/01/19 01:46:09;;;;;;;;;;;1.70;93.20;;;;;;4839996;29;19948;-76
2022/01/19 01:48:42;;;;;;;;;;;1.70;93.30;;;;;;4832301;29;19932;-76
2022/01/19 01:53:58;;;;;;;;;;;1.80;93.70;;;;;;4821829;29;19931;-76
2022/01/19 01:56:26;;;;;;;;;;;1.90;93.80;;;;;;4804592;29;19925;-76
2022/01/19 01:58:59;;;;;;;;;;;2.00;93.70;;;;;;4817647;29;19924;-76
2022/01/19 02:01:29;;;;;;;;;;;1.90;93.40;;;;;;4810449;29;19925;-76
2022/01/19 02:04:00;;;;;;;;;;;1.90;93.40;;;;;;4832498;29;19925;-75
2022/01/19 02:06:34;;;;;;;;;;;2.00;93.50;;;;;;4829782;29;19925;-76
2022/01/19 02:09:21;;;;;;;;;;;1.90;93.40;;;;;;4827909;29;19932;-77
2022/01/19 02:23:07;;;;;;;;;;;1.90;93.80;;;;;;4839644;29;19932;-76
2022/01/19 02:25:42;;;;;;;;;;;1.80;93.70;;;;;;4837861;29;20384;-76
2022/01/19 02:41:38;;;;;;;;;;;2.00;93.60;;;;;;4837080;29;19932;-77
2022/01/19 02:44:09;;;;;;;;;;;2.00;93.50;;;;;;4821421;29;19933;-76
2022/01/19 02:49:18;;;;;;;;;;;2.00;93.40;;;;;;4841660;29;19928;-76
2022/01/19 02:51:49;;;;;;;;;;;2.00;93.40;;;;;;4826428;29;19928;-76
2022/01/19 02:54:22;;;;;;;;;;;2.00;93.30;;;;;;4820129;29;19924;-76
2022/01/19 02:56:53;;;;;;;;;;;2.10;93.30;;;;;;4830641;29;19932;-76
2022/01/19 03:10:32;;;;;;;;;;;2.20;93.30;;;;;;4802451;29;19932;-76
2022/01/19 03:12:59;;;;;;;;;;;2.20;93.30;;;;;;4796811;29;19933;-76
2022/01/19 03:15:27;;;;;;;;;;;2.30;93.20;;;;;;4802251;29;19932;-76
2022/01/19 03:17:58;;;;;;;;;;;2.30;93.20;;;;;;4787240;29;19948;-76
2022/01/19 03:20:27;;;;;;;;;;;2.20;93.10;;;;;;4801672;29;19936;-76
2022/01/19 03:25:25;;;;;;;;;;;2.10;93.00;;;;;;4798942;29;19996;-76
2022/01/19 03:27:52;;;;;;;;;;;2.00;92.90;;;;;;4797662;29;19929;-76
2022/01/19 03:30:20;;;;;;;;;;;2.00;93.00;;;;;;4800458;29;19925;-75
2022/01/19 03:32:48;;;;;;;;;;;2.00;93.00;;;;;;4799905;29;19933;-75
2022/01/19 03:35:16;;;;;;;;;;;1.90;92.90;;;;;;4799484;29;20305;-76
2022/01/19 03:37:45;;;;;;;;;;;1.80;92.90;;;;;;4800095;29;19932;-76
2022/01/19 03:40:12;;;;;;;;;;;1.80;93.00;;;;;;4797562;29;19925;-76
2022/01/19 03:42:40;;;;;;;;;;;1.80;93.10;;;;;;4819118;29;19944;-76
2022/01/19 03:45:09;;;;;;;;;;;1.80;93.30;;;;;;4809344;29;20403;-76
2022/01/19 03:47:45;;;;;;;;;;;1.70;93.20;;;;;;4822992;29;19924;-76
2022/01/19 03:50:13;;;;;;;;;;;1.70;93.00;;;;;;4824481;29;19925;-76
2022/01/19 03:52:41;;;;;;;;;;;1.60;93.00;;;;;;4832777;29;20384;-76
2022/01/19 03:55:09;;;;;;;;;;;1.60;92.90;;;;;;4823211;29;19941;-76
2022/01/19 03:57:37;;;;;;;;;;;1.40;92.90;;;;;;4790936;29;20390;-75
2022/01/19 04:00:06;;;;;;;;;;;1.40;92.90;;;;;;4831756;29;19933;-76
2022/01/19 04:02:43;;;;;;;;;;;1.40;93.00;;;;;;4838495;29;19929;-76
2022/01/19 04:05:20;;;;;;;;;;;1.30;93.30;;;;;;4827221;29;19932;-75
2022/01/19 04:07:47;;;;;;;;;;;1.40;93.50;;;;;;4811277;29;19925;-76
2022/01/19 04:10:16;;;;;;;;;;;1.50;93.80;;;;;;4809824;29;19925;-75
2022/01/19 04:12:53;;;;;;;;;;;1.50;93.90;;;;;;4838569;29;20381;-76
2022/01/19 04:15:21;;;;;;;;;;;1.60;93.90;;;;;;4803437;29;20308;-76
2022/01/19 04:17:53;;;;;;;;;;;1.70;93.80;;;;;;4836335;29;19932;-75
2022/01/19 04:20:25;;;;;;;;;;;1.80;93.70;;;;;;4852467;29;19947;-76
2022/01/19 04:22:55;;;;;;;;;;;1.80;93.60;;;;;;4833626;29;20296;-76
2022/01/19 04:25:23;;;;;;;;;;;1.90;93.60;;;;;;4829371;29;19925;-76
2022/01/19 04:27:51;;;;;;;;;;;2.00;93.50;;;;;;4824811;29;19924;-76
2022/01/19 04:30:21;;;;;;;;;;;2.10;93.40;;;;;;4839114;29;20317;-76
2022/01/19 04:35:23;;;;;;;;;;;2.20;93.20;;;;;;4852147;29;20385;-76
2022/01/19 05:07:54;;;;;;;;;;;5.10;94.70;;;;;;4833276;29;19928;-76
2022/01/19 05:13:31;;;;;;;;;;;5.50;93.90;;;;;;4852770;29;19924;-75
2022/01/19 05:15:59;;;;;;;;;;;5.70;93.40;;;;;;4836146;29;19928;-75
2022/01/19 05:18:26;;;;;;;;;;;5.80;92.70;;;;;;4827749;29;20328;-75
2022/01/19 05:20:54;;;;;;;;;;;5.80;92.20;;;;;;4811257;29;19924;-75
2022/01/19 05:23:53;;;;;;;;;;;5.90;91.90;;;;;;4811023;29;19924;-75
2022/01/19 05:26:21;;;;;;;;;;;5.90;91.70;;;;;;4824969;29;19925;-75
2022/01/19 05:28:49;;;;;;;;;;;5.90;91.50;;;;;;4808425;29;20308;-75
2022/01/19 05:31:16;;;;;;;;;;;5.90;91.30;;;;;;4815338;29;19947;-75
2022/01/19 05:33:44;;;;;;;;;;;5.80;91.30;;;;;;4830952;29;20320;-75
2022/01/19 05:36:11;;;;;;;;;;;5.80;91.20;;;;;;4827735;29;19932;-75
2022/01/19 05:39:05;;;;;;;;;;;5.80;91.10;;;;;;4795527;29;19929;-75
2022/01/19 05:41:57;;;;;;;;;;;5.80;91.10;;;;;;4812436;29;19928;-77
2022/01/19 05:44:25;;;;;;;;;;;5.80;91.00;;;;;;4837617;29;19924;-75
2022/01/19 05:46:52;;;;;;;;;;;5.80;91.00;;;;;;4819172;29;19924;-75
2022/01/19 05:49:20;;;;;;;;;;;5.70;91.00;;;;;;4827955;29;19925;-75
2022/01/19 05:51:48;;;;;;;;;;;5.70;91.10;;;;;;4833923;29;19952;-75
2022/01/19 05:54:17;;;;;;;;;;;5.70;91.10;;;;;;4824057;29;19924;-75
2022/01/19 05:56:45;;;;;;;;;;;5.70;91.10;;;;;;4824109;29;19924;-74
2022/01/19 05:59:22;;;;;;;;;;;5.70;91.10;;;;;;4819366;29;19943;-74
2022/01/19 06:01:49;;;;;;;;;;;5.60;91.10;;;;;;4822176;29;19924;-74
2022/01/19 06:04:17;;;;;;;;;;;5.60;91.10;;;;;;4823536;29;19925;-75
2022/01/19 06:07:03;;;;;;;;;;;5.60;91.10;;;;;;4811415;29;19932;-74
2022/01/19 06:09:49;;;;;;;;;;;5.50;91.00;;;;;;4817296;29;20409;-74
2022/01/19 06:12:18;;;;;;;;;;;5.50;91.00;;;;;;4837642;29;19932;-74
2022/01/19 06:14:46;;;;;;;;;;;5.50;91.00;;;;;;4826194;29;19925;-75
2022/01/19 06:17:15;;;;;;;;;;;5.50;90.90;;;;;;4839888;29;20388;-75
2022/01/19 06:19:44;;;;;;;;;;;5.50;90.80;;;;;;4822980;29;19924;-75
2022/01/19 06:22:16;;;;;;;;;;;5.40;90.80;;;;;;4854010;29;19924;-75
2022/01/19 06:24:44;;;;;;;;;;;5.30;90.70;;;;;;4831893;29;19924;-75
2022/01/19 06:27:12;;;;;;;;;;;5.30;90.80;;;;;;4841013;29;19925;-75
2022/01/19 06:29:39;;;;;;;;;;;5.30;90.90;;;;;;4839549;29;19932;-76
2022/01/19 06:32:07;;;;;;;;;;;5.20;91.00;;;;;;4848880;29;19924;-73
2022/01/19 06:34:35;;;;;;;;;;;5.20;91.00;;;;;;4832418;29;19925;-75
2022/01/19 06:37:21;;;;;;;;;;;5.20;91.10;;;;;;4823978;29;19925;-75
2022/01/19 06:39:59;;;;;;;;;;;5.20;91.20;;;;;;4826167;29;20401;-74
2022/01/19 06:42:29;;;;;;;;;;;5.20;91.20;;;;;;4842046;29;19931;-74
2022/01/19 06:44:56;;;;;;;;;;;5.20;91.30;;;;;;4838676;29;20397;-75
2022/01/19 06:47:24;;;;;;;;;;;5.20;91.30;;;;;;4851584;29;19948;-74
2022/01/19 06:49:52;;;;;;;;;;;5.20;91.30;;;;;;4841200;29;19924;-75
2022/01/19 06:52:29;;;;;;;;;;;5.10;91.40;;;;;;4828027;29;19932;-76
2022/01/19 06:54:57;;;;;;;;;;;5.10;91.40;;;;;;4847196;29;19936;-76
2022/01/19 06:57:24;;;;;;;;;;;5.10;91.50;;;;;;4824828;29;19924;-76
2022/01/19 07:00:15;;;;;;;;;;;5.10;91.50;;;;;;4835396;29;19931;-74
2022/01/19 07:03:02;;;;;;;;;;;5.20;91.50;;;;;;4837101;29;20390;-74
2022/01/19 07:05:39;;;;;;;;;;;5.10;91.50;;;;;;4843206;29;19924;-75
2022/01/19 07:08:30;;;;;;;;;;;5.20;91.60;;;;;;4836585;29;19946;-76
2022/01/19 07:10:58;;;;;;;;;;;5.10;91.60;;;;;;4839263;29;19931;-75
2022/01/19 07:13:27;;;;;;;;;;;5.20;91.60;;;;;;4838168;29;19924;-76
2022/01/19 07:15:55;;;;;;;;;;;5.20;91.60;;;;;;4826102;29;19925;-75
2022/01/19 07:18:23;;;;;;;;;;;5.20;91.60;;;;;;4838154;29;19935;-74
2022/01/19 07:20:52;;;;;;;;;;;5.20;91.60;;;;;;4822912;29;19924;-74
2022/01/19 07:23:23;;;;;;;;;;;5.20;91.70;;;;;;4823533;29;19925;-74
2022/01/19 07:25:50;;;;;;;;;;;5.20;91.70;;;;;;4816693;29;19925;-75
2022/01/19 07:28:19;;;;;;;;;;;5.20;91.70;;;;;;4807928;29;19928;-77
2022/01/19 07:30:48;;;;;;;;;;;5.20;91.70;;;;;;4826700;29;19925;-75
2022/01/19 07:33:16;;;;;;;;;;;5.20;91.70;;;;;;4840690;29;19924;-74
2022/01/19 07:35:46;;;;;;;;;;;5.20;91.80;;;;;;4821547;29;19947;-75
2022/01/19 07:38:15;;;;;;;;;;;5.30;92.00;;;;;;4813048;29;19936;-74
2022/01/19 07:40:43;;;;;;;;;;;5.30;92.30;;;;;;4840233;29;19924;-74
2022/01/19 07:43:11;;;;;;;;;;;5.50;92.60;;;;;;4831149;29;19931;-74
2022/01/19 07:46:01;;;;;;;;;;;5.80;93.10;;;;;;4818494;29;19932;-74
2022/01/19 07:48:48;;;;;;;;;;;6.10;93.10;;;;;;4825039;29;19924;-75
2022/01/19 07:51:39;;;;;;;;;;;6.30;93.20;;;;;;4748479;30;19938;-75
2022/01/19 07:54:16;;;;;;;;;;;6.60;93.00;;;;;;4747431;30;19926;-75
2022/01/19 07:57:12;;;;;;;;;;;6.70;92.70;;;;;;4753745;30;19926;-75
2022/01/19 08:00:03;;;;;;;;;;;6.80;92.30;;;;;;4684998;30;20321;-75
2022/01/19 08:02:44;;;;;;;;;;;6.80;92.00;;;;;;4698705;30;20820;-75
2022/01/19 08:05:30;;;;;;;;;;;6.80;91.70;;;;;;4698101;30;19927;-75
2022/01/19 08:07:58;;;;;;;;;;;6.80;91.70;;;;;;4684290;30;20345;-75
2022/01/19 08:10:28;;;;;;;;;;;6.80;91.60;;;;;;4699349;30;19931;-75
2022/01/19 08:13:01;;;;;;;;;;;6.80;91.60;;;;;;4712389;30;19934;-75
2022/01/19 08:15:29;;;;;;;;;;;6.80;91.50;;;;;;4698371;30;19927;-75
2022/01/19 08:18:01;;;;;;;;;;;6.90;91.50;;;;;;4680940;30;20323;-76
2022/01/19 08:20:30;;;;;;;;;;;6.80;91.50;;;;;;4695651;30;20033;-76
2022/01/19 08:22:57;;;;;;;;;;;6.80;91.40;;;;;;4709234;30;19931;-76
2022/01/19 08:25:30;;;;;;;;;;;6.80;91.40;;;;;;4708584;30;19942;-75
2022/01/19 08:27:57;;;;;;;;;;;6.80;91.40;;;;;;4705795;30;19936;-75
2022/01/19 08:30:31;;;;;;;;;;;6.90;91.30;;;;;;4753568;30;19929;-75
2022/01/19 08:32:59;;;;;;;;;;;6.90;91.20;;;;;;4761502;30;19937;-77
2022/01/19 08:35:35;;;;;;;;;;;6.90;91.20;;;;;;4761366;30;19941;-75
2022/01/19 08:38:25;;;;;;;;;;;6.90;91.20;;;;;;4831401;29;19932;-75
2022/01/19 08:41:10;;;;;;;;;;;6.90;91.10;;;;;;4832296;29;20274;-75
2022/01/19 08:43:39;;;;;;;;;;;6.90;91.10;;;;;;4833692;29;19931;-76
2022/01/19 08:46:07;;;;;;;;;;;6.90;91.10;;;;;;4817549;29;19936;-75
2022/01/19 08:48:55;;;;;;;;;;;6.90;91.20;;;;;;4831796;29;19940;-75
2022/01/19 08:51:40;;;;;;;;;;;6.90;91.30;;;;;;4817558;29;19929;-74
2022/01/19 08:54:16;;;;;;;;;;;7.00;91.40;;;;;;4834827;29;20016;-74
2022/01/19 08:56:56;;;;;;;;;;;7.00;91.60;;;;;;4833429;29;19999;-75
2022/01/19 08:59:23;;;;;;;;;;;7.10;91.90;;;;;;4833106;29;19925;-75
2022/01/19 09:01:51;;;;;;;;;;;7.10;92.00;;;;;;4833002;29;20304;-74
2022/01/19 09:04:18;;;;;;;;;;;7.20;92.20;;;;;;4832463;29;19924;-75
2022/01/19 09:06:46;;;;;;;;;;;7.20;92.20;;;;;;4833662;29;19931;-76
2022/01/19 09:09:13;;;;;;;;;;;7.30;92.30;;;;;;4834539;29;19928;-76
2022/01/19 09:11:42;;;;;;;;;;;7.30;92.40;;;;;;4813689;29;19933;-76
2022/01/19 09:14:10;;;;;;;;;;;7.40;92.50;;;;;;4832763;29;19939;-76
2022/01/19 09:16:38;;;;;;;;;;;7.50;92.50;;;;;;4836433;29;19924;-77
2022/01/19 09:19:09;;;;;;;;;;;7.50;92.60;;;;;;4832471;29;19931;-76
2022/01/19 09:21:36;;;;;;;;;;;7.50;92.50;;;;;;4834108;29;20586;-78
2022/01/19 09:24:04;;;;;;;;;;;7.60;92.40;;;;;;4831211;29;19935;-78
2022/01/19 09:26:31;;;;;;;;;;;7.50;92.30;;;;;;4846398;29;20281;-78
2022/01/19 09:28:59;;;;;;;;;;;7.50;92.10;;;;;;4845443;29;19935;-77
2022/01/19 09:31:34;;;;;;;;;;;7.50;91.70;;;;;;4829888;29;19956;-77
2022/01/19 09:34:08;;;;;;;;;;;7.60;91.60;;;;;;4829982;29;19952;-78
2022/01/19 09:36:44;;;;;;;;;;;7.60;91.40;;;;;;4844906;29;19925;-78
2022/01/19 09:39:15;;;;;;;;;;;7.50;91.30;;;;;;4845508;29;20315;-78
2022/01/19 09:41:42;;;;;;;;;;;7.50;91.20;;;;;;4831902;29;19924;-78
2022/01/19 09:44:10;;;;;;;;;;;7.60;91.20;;;;;;4835355;29;19940;-78
2022/01/19 09:46:37;;;;;;;;;;;7.60;90.80;;;;;;4833651;29;19925;-77
2022/01/19 09:49:05;;;;;;;;;;;7.60;90.10;;;;;;4847736;29;20413;-78
2022/01/19 09:51:33;;;;;;;;;;;7.50;89.70;;;;;;4831014;29;19932;-78
2022/01/19 09:54:00;;;;;;;;;;;7.50;89.60;;;;;;4829112;29;19928;-77
2022/01/19 09:56:28;;;;;;;;;;;7.50;89.50;;;;;;4827822;29;19932;-77
2022/01/19 09:58:56;;;;;;;;;;;7.50;89.20;;;;;;4833444;29;20328;-78
2022/01/19 10:01:24;;;;;;;;;;;7.50;89.00;;;;;;4832136;29;19925;-77
2022/01/19 10:03:52;;;;;;;;;;;7.60;88.70;;;;;;4842224;29;19933;-77
2022/01/19 10:06:22;;;;;;;;;;;7.70;88.30;;;;;;4829164;29;19935;-79
2022/01/19 10:08:52;;;;;;;;;;;7.70;88.10;;;;;;4834010;29;19925;-87
2022/01/19 10:16:58;;;;;;;;;;;7.70;87.60;;;;;;4836271;29;20392;-78
2022/01/19 10:17:10;;;;;;;;;;;7.70;86.80;;;;;;4831865;29;20401;-79
2022/01/19 10:19:37;;;;;;;;;;;7.70;86.60;;;;;;4842080;29;19924;-78
2022/01/19 10:22:18;;;;;;;;;;;7.70;86.10;;;;;;4844436;29;20384;-79
2022/01/19 10:24:48;;;;;;;;;;;7.70;86.10;;;;;;4826264;29;19929;-80
2022/01/19 10:27:17;;;;;;;;;;;7.60;85.90;;;;;;4834373;29;19940;-79
2022/01/19 10:29:44;;;;;;;;;;;7.50;85.90;;;;;;4830152;29;19924;-78
2022/01/19 10:32:12;;;;;;;;;;;7.50;85.80;;;;;;4822393;29;19929;-78
2022/01/19 10:34:40;;;;;;;;;;;7.40;85.80;;;;;;4832225;29;19935;-78
2022/01/19 10:37:07;;;;;;;;;;;7.40;85.70;;;;;;4836651;29;19935;-79
2022/01/19 10:39:51;;;;;;;;;;;7.50;85.70;;;;;;4830297;29;19947;-79
2022/01/19 10:42:19;;;;;;;;;;;7.50;85.80;;;;;;4829594;29;19924;-78
2022/01/19 10:45:13;;;;;;;;;;;7.60;85.20;;;;;;4835189;29;20003;-78
2022/01/19 10:47:50;;;;;;;;;;;7.70;84.10;;;;;;4819408;29;19925;-79
2022/01/19 10:50:21;;;;;;;;;;;7.70;83.80;;;;;;4837875;29;20419;-78
2022/01/19 10:52:49;;;;;;;;;;;7.70;82.90;;;;;;4839781;29;20369;-78
2022/01/19 10:55:20;;;;;;;;;;;7.70;82.00;;;;;;4838626;29;19935;-78
2022/01/19 10:57:48;;;;;;;;;;;7.80;81.50;;;;;;4837219;29;20006;-78
2022/01/19 11:00:17;;;;;;;;;;;8.00;79.90;;;;;;4837908;29;19924;-78
2022/01/19 11:02:46;;;;;;;;;;;8.20;79.10;;;;;;4832776;29;19924;-80
2022/01/19 11:05:14;;;;;;;;;;;8.30;78.80;;;;;;4829850;29;19925;-76
2022/01/19 11:07:42;;;;;;;;;;;8.30;77.90;;;;;;4838150;29;19924;-78
2022/01/19 11:10:13;;;;;;;;;;;8.30;78.10;;;;;;4834730;29;19933;-78
2022/01/19 11:12:46;;;;;;;;;;;8.30;78.30;;;;;;4822900;29;19929;-80
2022/01/19 11:15:17;;;;;;;;;;;8.30;77.60;;;;;;4837367;29;20297;-80
2022/01/19 11:17:46;;;;;;;;;;;8.20;78.00;;;;;;4831883;29;19932;-79
2022/01/19 11:20:15;;;;;;;;;;;8.20;78.20;;;;;;4829939;29;20457;-79
2022/01/19 11:22:57;;;;;;;;;;;8.20;78.60;;;;;;4833690;29;19945;-85
2022/01/19 11:25:30;;;;;;;;;;;8.30;78.80;;;;;;4831871;29;19932;-79
2022/01/19 11:28:33;;;;;;;;;;;8.40;78.30;;;;;;4830523;29;19935;-79
2022/01/19 11:31:09;;;;;;;;;;;8.40;78.30;;;;;;4831293;29;20007;-78
2022/01/19 11:33:41;;;;;;;;;;;8.50;78.00;;;;;;4813225;29;19924;-78
2022/01/19 11:36:22;;;;;;;;;;;8.50;78.10;;;;;;4824943;29;19931;-78
2022/01/19 11:38:50;;;;;;;;;;;8.50;78.30;;;;;;4832085;29;19931;-79
2022/01/19 11:41:18;;;;;;;;;;;8.50;78.00;;;;;;4800690;29;19951;-79
2022/01/19 11:43:56;;;;;;;;;;;8.60;78.20;;;;;;4831170;29;19936;-79
2022/01/19 11:46:27;;;;;;;;;;;8.60;78.10;;;;;;4829317;29;19924;-79
2022/01/19 11:48:55;;;;;;;;;;;8.60;77.30;;;;;;4812306;29;20440;-78
2022/01/19 11:51:25;;;;;;;;;;;8.50;77.30;;;;;;4828749;29;20337;-78
2022/01/19 11:54:04;;;;;;;;;;;8.50;77.50;;;;;;4828495;29;20373;-77
2022/01/19 11:56:32;;;;;;;;;;;8.80;77.10;;;;;;4830815;29;19932;-78
2022/01/19 11:59:06;;;;;;;;;;;8.80;76.00;;;;;;4829301;29;19924;-79
2022/01/19 12:01:34;;;;;;;;;;;8.80;76.00;;;;;;4831045;29;20300;-78
2022/01/19 12:04:16;;;;;;;;;;;9.00;75.40;;;;;;4828093;29;19932;-79
2022/01/19 12:06:44;;;;;;;;;;;9.30;75.20;;;;;;4816199;29;19925;-79
2022/01/19 12:09:14;;;;;;;;;;;9.30;75.20;;;;;;4828629;29;20404;-79
2022/01/19 12:11:52;;;;;;;;;;;9.30;73.40;;;;;;4814353;29;19944;-79
2022/01/19 12:14:35;;;;;;;;;;;9.40;72.50;;;;;;4830928;29;19924;-78
2022/01/19 12:17:07;;;;;;;;;;;9.30;72.10;;;;;;4830892;29;20392;-78
2022/01/19 12:19:40;;;;;;;;;;;9.20;72.60;;;;;;4831460;29;19932;-78
2022/01/19 12:22:20;;;;;;;;;;;9.00;72.20;;;;;;4834196;29;19932;-78
2022/01/19 12:24:57;;;;;;;;;;;8.80;72.00;;;;;;4834771;29;19951;-77
2022/01/19 12:27:26;;;;;;;;;;;8.70;72.30;;;;;;4833079;29;20020;-77
2022/01/19 12:29:56;;;;;;;;;;;8.70;72.30;;;;;;4833284;29;19925;-77
2022/01/19 12:32:24;;;;;;;;;;;8.70;71.60;;;;;;4833113;29;19925;-77
2022/01/19 12:34:53;;;;;;;;;;;8.60;71.50;;;;;;4834173;29;19933;-78
2022/01/19 12:37:27;;;;;;;;;;;8.50;72.00;;;;;;4833880;29;19931;-77
2022/01/19 12:39:55;;;;;;;;;;;8.70;72.30;;;;;;4835214;29;19925;-78
2022/01/19 12:42:31;;;;;;;;;;;8.80;72.20;;;;;;4825878;29;19932;-78
2022/01/19 12:45:02;;;;;;;;;;;9.00;72.10;;;;;;4825102;29;20282;-78
2022/01/19 12:47:29;;;;;;;;;;;9.00;72.50;;;;;;4825669;29;19935;-78
2022/01/19 12:49:58;;;;;;;;;;;9.10;71.90;;;;;;4824495;29;19924;-78
2022/01/19 12:52:30;;;;;;;;;;;9.10;71.70;;;;;;4825638;29;19941;-78
2022/01/19 12:55:07;;;;;;;;;;;9.10;72.00;;;;;;4836063;29;19924;-78
2022/01/19 12:57:35;;;;;;;;;;;9.20;71.00;;;;;;4842646;29;19925;-78
2022/01/19 13:00:04;;;;;;;;;;;9.30;71.20;;;;;;4843904;29;19925;-77
2022/01/19 13:02:32;;;;;;;;;;;9.60;70.60;;;;;;4843640;29;19931;-78
2022/01/19 13:05:07;;;;;;;;;;;9.70;69.80;;;;;;4843248;29;19934;-78
2022/01/19 13:07:46;;;;;;;;;;;9.90;69.50;;;;;;4843962;29;19931;-78
2022/01/19 13:10:25;;;;;;;;;;;10.30;66.90;;;;;;4843169;29;19936;-78
2022/01/19 13:13:05;;;;;;;;;;;10.30;66.50;;;;;;4826803;29;19931;-78
2022/01/19 13:15:49;;;;;;;;;;;10.30;67.20;;;;;;4842968;29;20282;-78
2022/01/19 13:18:34;;;;;;;;;;;10.20;66.40;;;;;;4844675;29;19925;-78
2022/01/19 13:21:04;;;;;;;;;;;9.90;67.00;;;;;;4843511;29;19924;-77
2022/01/19 13:23:33;;;;;;;;;;;9.70;66.60;;;;;;4843707;29;19931;-78
2022/01/19 13:26:02;;;;;;;;;;;9.50;66.80;;;;;;4813189;29;19936;-78
2022/01/19 13:28:31;;;;;;;;;;;9.50;67.00;;;;;;4823538;29;20309;-77
2022/01/19 13:31:15;;;;;;;;;;;9.50;67.90;;;;;;4840414;29;19931;-78
2022/01/19 13:33:52;;;;;;;;;;;9.40;68.50;;;;;;4842763;29;19929;-77
2022/01/19 13:36:24;;;;;;;;;;;9.20;69.00;;;;;;4843449;29;19932;-77
2022/01/19 13:38:53;;;;;;;;;;;8.90;70.40;;;;;;4844025;29;19924;-75
2022/01/19 13:41:21;;;;;;;;;;;8.70;71.70;;;;;;4823884;29;20027;-76
2022/01/19 13:43:49;;;;;;;;;;;8.80;72.50;;;;;;4828833;29;19932;-76
2022/01/19 13:46:20;;;;;;;;;;;8.80;73.00;;;;;;4824578;29;19948;-76
2022/01/19 13:48:53;;;;;;;;;;;8.90;72.90;;;;;;4825155;29;19944;-76
2022/01/19 13:51:22;;;;;;;;;;;9.00;72.00;;;;;;4808396;29;19929;-76
2022/01/19 13:53:51;;;;;;;;;;;8.90;72.00;;;;;;4824169;29;19932;-75
2022/01/19 13:56:30;;;;;;;;;;;8.80;72.10;;;;;;4823222;29;20393;-76
2022/01/19 13:59:04;;;;;;;;;;;8.50;72.50;;;;;;4823497;29;20325;-77
2022/01/19 14:01:49;;;;;;;;;;;8.30;72.70;;;;;;4840405;29;19924;-76
2022/01/19 14:04:16;;;;;;;;;;;8.30;73.10;;;;;;4842187;29;19932;-76
2022/01/19 14:06:45;;;;;;;;;;;8.30;73.20;;;;;;4842230;29;19936;-76
2022/01/19 14:09:14;;;;;;;;;;;8.20;73.50;;;;;;4842661;29;19924;-76
2022/01/19 14:11:43;;;;;;;;;;;8.10;73.70;;;;;;4842368;29;20316;-76
2022/01/19 14:14:14;;;;;;;;;;;8.10;73.60;;;;;;4841361;29;20404;-76
2022/01/19 14:16:45;;;;;;;;;;;8.00;73.80;;;;;;4841829;29;20062;-76
2022/01/19 14:19:16;;;;;;;;;;;7.90;74.00;;;;;;4837194;29;19931;-77
2022/01/19 14:22:03;;;;;;;;;;;7.90;74.10;;;;;;4808102;29;19932;-77
2022/01/19 14:24:49;;;;;;;;;;;8.00;74.00;;;;;;4824051;29;20408;-76
2022/01/19 14:27:38;;;;;;;;;;;8.00;73.50;;;;;;4824383;29;20397;-77
2022/01/19 14:30:23;;;;;;;;;;;8.00;73.70;;;;;;4824000;29;20470;-77
2022/01/19 14:33:09;;;;;;;;;;;8.00;74.10;;;;;;4823929;29;19932;-77
2022/01/19 14:35:40;;;;;;;;;;;7.90;74.50;;;;;;4823822;29;20396;-76
2022/01/19 14:38:19;;;;;;;;;;;7.90;74.50;;;;;;4824025;29;19925;-76
2022/01/19 14:40:50;;;;;;;;;;;7.90;74.70;;;;;;4792807;29;19932;-77
2022/01/19 14:43:20;;;;;;;;;;;7.90;74.50;;;;;;4823547;29;19924;-77
2022/01/19 14:46:02;;;;;;;;;;;7.90;74.50;;;;;;4807946;29;19925;-76
2022/01/19 14:48:38;;;;;;;;;;;7.80;74.10;;;;;;4821766;29;19932;-77
2022/01/19 14:51:15;;;;;;;;;;;7.80;74.00;;;;;;4841232;29;20377;-76
2022/01/19 14:53:42;;;;;;;;;;;7.70;74.30;;;;;;4825048;29;19925;-77
2022/01/19 14:56:10;;;;;;;;;;;7.70;74.50;;;;;;4825954;29;19931;-77
2022/01/19 14:58:37;;;;;;;;;;;7.80;74.30;;;;;;4841528;29;20404;-77
2022/01/19 15:01:05;;;;;;;;;;;7.80;74.70;;;;;;4841277;29;20340;-77
2022/01/19 15:03:32;;;;;;;;;;;7.80;74.90;;;;;;4841259;29;20007;-76
2022/01/19 15:06:00;;;;;;;;;;;7.90;74.60;;;;;;4825539;29;19925;-76
2022/01/19 15:08:28;;;;;;;;;;;8.00;74.70;;;;;;4839865;29;20405;-77
2022/01/19 15:10:56;;;;;;;;;;;8.10;74.80;;;;;;4807292;29;19925;-77
2022/01/19 15:13:23;;;;;;;;;;;8.20;74.80;;;;;;4823584;29;20395;-76
2022/01/19 15:15:51;;;;;;;;;;;8.30;74.80;;;;;;4806855;29;19924;-76
2022/01/19 15:18:18;;;;;;;;;;;8.30;74.80;;;;;;4792529;29;19925;-76
2022/01/19 15:20:46;;;;;;;;;;;8.30;74.70;;;;;;4826004;29;19925;-75
2022/01/19 15:23:13;;;;;;;;;;;8.30;74.80;;;;;;4831795;29;20400;-77
2022/01/19 15:25:41;;;;;;;;;;;8.20;74.90;;;;;;4821412;29;19932;-77
2022/01/19 15:28:09;;;;;;;;;;;7.90;74.80;;;;;;4803735;29;19931;-76
2022/01/19 15:30:38;;;;;;;;;;;7.80;75.00;;;;;;4837135;29;19935;-76
2022/01/19 15:33:06;;;;;;;;;;;7.70;75.10;;;;;;4841501;29;19936;-77
2022/01/19 15:35:36;;;;;;;;;;;7.70;75.40;;;;;;4831024;29;20007;-78
2022/01/19 15:38:07;;;;;;;;;;;7.70;75.70;;;;;;4840974;29;19925;-77
2022/01/19 15:40:36;;;;;;;;;;;7.70;76.10;;;;;;4840902;29;19928;-78
2022/01/19 15:43:05;;;;;;;;;;;7.80;76.60;;;;;;4827316;29;19936;-78
2022/01/19 15:45:35;;;;;;;;;;;7.70;76.80;;;;;;4819924;29;20491;-77
2022/01/19 15:48:04;;;;;;;;;;;7.60;77.00;;;;;;4811070;29;19939;-76
2022/01/19 15:50:32;;;;;;;;;;;7.50;77.50;;;;;;4823392;29;19925;-77
2022/01/19 15:53:00;;;;;;;;;;;7.40;77.90;;;;;;4826397;29;19924;-77
2022/01/19 15:55:28;;;;;;;;;;;7.30;78.30;;;;;;4829589;29;19924;-78
2022/01/19 15:58:16;;;;;;;;;;;7.20;78.50;;;;;;4840068;29;19929;-76
2022/01/19 16:00:45;;;;;;;;;;;7.10;78.90;;;;;;4831912;29;19925;-77
2022/01/19 16:03:13;;;;;;;;;;;7.00;79.30;;;;;;4828762;29;20317;-77
2022/01/19 16:05:41;;;;;;;;;;;6.90;79.40;;;;;;4839510;29;19924;-77
2022/01/19 16:08:09;;;;;;;;;;;6.80;79.80;;;;;;4837165;29;19932;-76
2022/01/19 16:10:37;;;;;;;;;;;6.70;80.10;;;;;;4837770;29;19924;-77
2022/01/19 16:13:05;;;;;;;;;;;6.70;80.30;;;;;;4820470;29;19928;-77
2022/01/19 16:15:32;;;;;;;;;;;6.60;80.40;;;;;;4839829;29;19925;-77
2022/01/19 16:18:00;;;;;;;;;;;6.60;80.40;;;;;;4831166;29;19932;-77
2022/01/19 16:20:34;;;;;;;;;;;6.40;80.60;;;;;;4838999;29;19936;-77
2022/01/19 16:28:34;;;;;;;;;;;6.10;81.80;;;;;;4835610;29;19991;-76